Terminal Aerodrome Forecast
Issued by NWS

Home | Current Version | Previous Version | Text Only | Print | Product List | Glossary On
Versions: 1 2 3 4 5 6 7 8 9 10 11 12 13 14 15
010
FTUS45 KTFX 232119 AAA
TAFLWT
TAF AMD
KLWT 232119Z 2321/2418 31008KT P6SM VCSH SCT040 OVC070
      TEMPO 2321/2324 VRB15G30KT 4SM TSRA BR OVC025CB
     FM240000 31007KT P6SM VCSH BKN040
     FM240300 29006KT P6SM OVC060
     FM240900 28007KT P6SM BKN080=

USA.gov is the U.S. government's official web portal to all federal, state and local government web resources and services.